This is the latest recevied weather packets stored in our database for station/object KM5R. If no packets are shown the sender has not sent any weather packets the latest 10 day(s).
| Time | Temp. | Humidity | Pressure | Rain* | Wind** | Luminosity | Snow |
|---|---|---|---|---|---|---|---|
| 1777917790 | 23.89° C | 62% | 1014 hPa | 0 mm | - | 773 W/m² | - |
| 1777917488 | 24.44° C | 63% | 1013.9 hPa | 0 mm | - | 837 W/m² | - |
| 1777916276 | 25° C | 61% | 1014.2 hPa | 0 mm | - | 768 W/m² | - |
| 1777915973 | 24.44° C | 61% | 1014.1 hPa | 0 mm | - | 736 W/m² | - |
| 1777915670 | 24.44° C | 60% | 1014.2 hPa | 0 mm | - | 721 W/m² | - |
| 1777915367 | 23.89° C | 61% | 1014.6 hPa | 0 mm | - | 812 W/m² | - |
| 1777915063 | 23.89° C | 62% | 1014.5 hPa | 0 mm | - | 441 W/m² | - |
| 1777914458 | 23.89° C | 61% | 1014.4 hPa | 0 mm | - | 382 W/m² | - |
| 1777914154 | 23.89° C | 61% | 1014.5 hPa | 0 mm | - | 788 W/m² | - |
| 1777913851 | 23.33° C | 63% | 1014.6 hPa | 0 mm | - | 780 W/m² | - |
| 1777913547 | 23.33° C | 63% | 1014.6 hPa | 0 mm | - | 748 W/m² | - |
| 1777912636 | 23.33° C | 63% | 1014.9 hPa | 0 mm | - | 695 W/m² | - |
| 1777912333 | 22.78° C | 63% | 1015 hPa | 0 mm | - | 637 W/m² | - |
| 1777911725 | 22.78° C | 65% | 1015 hPa | 0 mm | - | 634 W/m² | - |
| 1777911119 | 22.22° C | 65% | 1014.9 hPa | 0 mm | - | 607 W/m² | - |
| 1777910816 | 22.22° C | 64% | 1015.4 hPa | 0 mm | - | 589 W/m² | - |
| 1777910513 | 22.22° C | 65% | 1015 hPa | 0 mm | - | 580 W/m² | - |
| 1777910209 | 21.67° C | 65% | 1015.3 hPa | 0 mm | - | 533 W/m² | - |
| 1777908998 | 21.67° C | 67% | 1015.3 hPa | 0 mm | - | 396 W/m² | - |
| 1777908696 | 21.67° C | 66% | 1015.4 hPa | 0 mm | - | 461 W/m² | - |
| 1777908393 | 21.11° C | 67% | 1015.6 hPa | 0 mm | - | 559 W/m² | - |
| 1777907178 | 20.56° C | 69% | 1015.5 hPa | 0 mm | - | 414 W/m² | - |
| 1777905661 | 20° C | 70% | 1015.6 hPa | 0 mm | - | 265 W/m² | - |
| 1777902630 | 17.78° C | 76% | 1015.7 hPa | 0 mm | - | 228 W/m² | - |
| 1777902024 | 17.22° C | 76% | 1015.7 hPa | 0 mm | - | 198 W/m² | - |
* Rain latest hour (hover to see other rain measurements)
** Current wind speed in m/s (hover to see current wind gust speed)